createdAt,value
2018-08-19T00:02:08.555Z,21.04
2018-08-19T00:04:38.358Z,20.97
2018-08-19T00:07:07.284Z,20.80
2018-08-19T00:09:36.133Z,20.83
2018-08-19T00:12:04.874Z,20.86
2018-08-19T00:14:35.229Z,20.69
2018-08-19T00:17:05.129Z,20.70
2018-08-19T00:19:35.349Z,20.45
2018-08-19T00:22:03.928Z,20.54
2018-08-19T00:24:32.507Z,20.51
2018-08-19T00:27:02.026Z,20.46
2018-08-19T00:29:37.402Z,20.40
2018-08-19T00:32:06.913Z,20.17
2018-08-19T00:34:38.783Z,20.20
2018-08-19T00:37:07.746Z,20.22
2018-08-19T00:39:36.288Z,20.18
2018-08-19T00:42:05.258Z,20.23
2018-08-19T00:44:34.349Z,20.17
2018-08-19T00:47:03.839Z,20.23
2018-08-19T00:49:32.697Z,20.22
2018-08-19T00:52:02.364Z,20.14
2018-08-19T00:54:31.980Z,20.04
2018-08-19T00:57:01.173Z,19.93
2018-08-19T00:59:31.077Z,19.83
2018-08-19T01:01:59.866Z,20.00
2018-08-19T01:04:28.721Z,20.05
2018-08-19T01:06:58.452Z,19.97
2018-08-19T01:09:30.297Z,19.88
2018-08-19T01:11:58.918Z,19.78
2018-08-19T01:14:27.508Z,19.76
2018-08-19T01:16:56.045Z,19.68
2018-08-19T01:19:24.682Z,19.63
2018-08-19T01:21:55.294Z,19.66
2018-08-19T01:24:23.952Z,19.59
2018-08-19T01:26:52.554Z,19.50
2018-08-19T01:29:37.308Z,19.57
2018-08-19T01:32:12.078Z,19.44
2018-08-19T01:34:44.266Z,19.35
2018-08-19T01:37:15.377Z,19.40
2018-08-19T01:39:43.940Z,19.43
2018-08-19T01:42:12.541Z,19.40
2018-08-19T01:44:42.716Z,19.40
2018-08-19T01:47:11.256Z,19.41
2018-08-19T01:49:39.829Z,19.30
2018-08-19T01:52:08.818Z,19.18
2018-08-19T01:54:37.388Z,19.18
2018-08-19T01:57:05.968Z,19.14
2018-08-19T01:59:35.523Z,19.23
2018-08-19T02:02:08.691Z,19.25
2018-08-19T02:04:46.218Z,19.18
2018-08-19T02:07:16.660Z,19.19
2018-08-19T02:09:58.684Z,19.15
2018-08-19T02:15:20.610Z,19.03
2018-08-19T02:17:53.849Z,19.06
2018-08-19T02:20:25.691Z,19.07
2018-08-19T02:23:03.202Z,19.12
2018-08-19T02:25:33.910Z,19.01
2018-08-19T02:28:03.214Z,19.01
2018-08-19T02:30:31.850Z,18.96
2018-08-19T02:33:01.149Z,19.05
2018-08-19T02:35:30.871Z,19.11
2018-08-19T02:37:59.463Z,19.12
2018-08-19T02:40:33.033Z,19.18
2018-08-19T02:43:01.814Z,19.11
2018-08-19T02:45:30.441Z,19.04
2018-08-19T02:47:59.054Z,19.10
2018-08-19T02:50:27.656Z,19.05
2018-08-19T02:52:56.337Z,19.08
2018-08-19T02:55:25.991Z,19.15
2018-08-19T02:57:59.694Z,19.13
2018-08-19T03:00:28.486Z,18.98
2018-08-19T03:02:57.109Z,18.87
2018-08-19T03:05:26.641Z,18.94
2018-08-19T03:07:56.287Z,18.88
2018-08-19T03:10:24.886Z,18.75
2018-08-19T03:12:54.977Z,18.65
2018-08-19T03:15:23.573Z,18.70
2018-08-19T03:17:53.078Z,18.76
2018-08-19T03:20:21.980Z,18.75
2018-08-19T03:22:50.611Z,18.81
2018-08-19T03:25:19.174Z,18.80
2018-08-19T03:27:47.810Z,18.70
2018-08-19T03:30:18.253Z,18.75
2018-08-19T03:32:52.147Z,18.74
2018-08-19T03:35:21.764Z,18.70
2018-08-19T03:37:53.260Z,18.72
2018-08-19T03:40:24.909Z,18.71
2018-08-19T03:42:53.706Z,18.68
2018-08-19T03:45:23.169Z,18.69
2018-08-19T03:47:53.504Z,18.62
2018-08-19T03:50:23.534Z,18.62
2018-08-19T03:52:53.118Z,18.62
2018-08-19T03:55:27.766Z,18.61
2018-08-19T03:58:01.289Z,18.59
2018-08-19T04:00:40.331Z,18.56
2018-08-19T04:03:17.034Z,18.47
2018-08-19T04:08:43.614Z,18.37
2018-08-19T04:11:12.944Z,18.26
2018-08-19T04:13:42.054Z,18.33
2018-08-19T04:16:12.121Z,18.34
2018-08-19T04:18:43.503Z,18.32
2018-08-19T04:21:14.518Z,18.28
2018-08-19T04:23:44.808Z,18.34
2018-08-19T04:26:13.648Z,18.45
2018-08-19T04:28:43.315Z,18.49
2018-08-19T04:31:18.002Z,18.59
2018-08-19T04:33:47.664Z,18.62
2018-08-19T04:36:18.357Z,18.71
2018-08-19T04:38:46.900Z,18.77
2018-08-19T04:41:16.081Z,18.83
2018-08-19T04:43:45.150Z,18.80
2018-08-19T04:46:13.746Z,18.81
2018-08-19T04:48:46.155Z,18.89
2018-08-19T04:51:15.906Z,18.99
2018-08-19T04:56:37.414Z,19.11
2018-08-19T04:59:09.995Z,18.99
2018-08-19T05:01:38.814Z,19.09
2018-08-19T05:04:08.072Z,19.22
2018-08-19T05:06:36.678Z,19.34
2018-08-19T05:09:08.186Z,19.20
2018-08-19T05:11:36.835Z,19.42
2018-08-19T05:14:05.439Z,19.47
2018-08-19T05:16:33.982Z,19.48
2018-08-19T05:19:05.162Z,19.54
2018-08-19T05:21:33.857Z,19.37
2018-08-19T05:24:02.724Z,19.44
2018-08-19T05:26:31.896Z,19.59
2018-08-19T05:29:09.016Z,19.36
2018-08-19T05:31:50.312Z,19.36
2018-08-19T05:34:25.597Z,19.34
2018-08-19T05:36:54.236Z,19.40
2018-08-19T05:39:23.402Z,19.56
2018-08-19T05:42:15.341Z,19.55
2018-08-19T05:44:44.793Z,19.39
2018-08-19T05:47:17.214Z,19.54
2018-08-19T05:49:46.822Z,19.87
2018-08-19T05:52:18.851Z,20.04
2018-08-19T05:54:52.828Z,20.16
2018-08-19T05:57:21.442Z,20.47
2018-08-19T05:59:51.235Z,20.69
2018-08-19T06:02:54.797Z,20.86
2018-08-19T06:05:23.389Z,21.04
2018-08-19T06:08:01.891Z,21.07
2018-08-19T06:10:30.723Z,20.97
2018-08-19T06:13:00.306Z,21.04
2018-08-19T06:15:29.030Z,21.18
2018-08-19T06:17:58.444Z,21.42
2018-08-19T06:20:29.015Z,21.25
2018-08-19T06:22:57.663Z,21.32
2018-08-19T06:25:26.326Z,21.62
2018-08-19T06:27:55.636Z,22.07
2018-08-19T06:30:24.298Z,22.15
2018-08-19T06:32:53.598Z,22.03
2018-08-19T06:35:22.193Z,21.96
2018-08-19T06:37:50.911Z,22.03
2018-08-19T06:40:21.433Z,22.47
2018-08-19T06:42:50.621Z,22.85
2018-08-19T06:45:19.212Z,22.99
2018-08-19T06:47:47.918Z,22.90
2018-08-19T06:50:26.108Z,22.90
2018-08-19T06:52:55.429Z,22.72
2018-08-19T06:55:24.123Z,22.41
2018-08-19T06:57:53.133Z,22.67
2018-08-19T07:00:28.898Z,22.84
2018-08-19T07:03:00.191Z,23.15
2018-08-19T07:05:29.017Z,23.57
2018-08-19T07:07:57.650Z,24.41
2018-08-19T07:10:32.194Z,24.81
2018-08-19T07:13:05.918Z,25.06
2018-08-19T07:15:35.239Z,25.46
2018-08-19T07:18:04.142Z,25.38
2018-08-19T07:20:33.537Z,25.89
2018-08-19T07:23:02.102Z,27.10
2018-08-19T07:25:30.703Z,28.33
2018-08-19T07:27:59.370Z,29.63
2018-08-19T07:30:28.135Z,31.23
2018-08-19T07:32:56.962Z,32.94
2018-08-19T07:35:25.527Z,34.39
2018-08-19T07:37:54.338Z,34.54
2018-08-19T07:40:22.884Z,34.91
2018-08-19T07:42:51.439Z,34.05
2018-08-19T07:45:20.000Z,33.73
2018-08-19T07:47:48.844Z,34.23
2018-08-19T07:50:17.875Z,34.84
2018-08-19T07:52:46.801Z,34.25
2018-08-19T07:55:15.538Z,34.56
2018-08-19T07:57:44.334Z,35.83
2018-08-19T08:00:13.431Z,36.56
2018-08-19T08:02:42.078Z,36.92
2018-08-19T08:05:11.398Z,36.64
2018-08-19T08:07:44.340Z,37.38
2018-08-19T08:10:12.959Z,37.79
2018-08-19T08:12:42.023Z,38.94
2018-08-19T08:15:10.794Z,38.53
2018-08-19T08:17:41.075Z,38.54
2018-08-19T08:20:09.759Z,37.71
2018-08-19T08:22:39.115Z,36.82
2018-08-19T08:25:10.938Z,37.65
2018-08-19T08:27:39.493Z,38.30
2018-08-19T08:30:11.762Z,37.42
2018-08-19T08:32:41.293Z,37.46
2018-08-19T08:35:10.328Z,38.51
2018-08-19T08:37:41.746Z,39.31
2018-08-19T08:40:11.770Z,38.73
2018-08-19T08:42:43.385Z,40.10
2018-08-19T08:45:13.199Z,38.27
2018-08-19T08:47:42.242Z,40.06
2018-08-19T08:50:11.950Z,40.36
2018-08-19T08:52:43.321Z,40.23
2018-08-19T08:55:12.816Z,40.76
2018-08-19T08:57:41.372Z,40.61
2018-08-19T09:00:13.614Z,40.22
2018-08-19T09:02:43.143Z,39.65
2018-08-19T09:05:12.510Z,40.68
2018-08-19T09:07:41.723Z,41.05
2018-08-19T09:10:12.827Z,41.48
2018-08-19T09:12:50.965Z,40.23
2018-08-19T09:15:20.228Z,40.09
2018-08-19T09:17:49.888Z,39.73
2018-08-19T09:20:27.321Z,39.40
2018-08-19T09:22:55.915Z,38.87
2018-08-19T09:25:24.467Z,38.40
2018-08-19T09:27:53.789Z,37.80
2018-08-19T09:30:30.746Z,37.11
2018-08-19T09:33:01.673Z,35.66
2018-08-19T09:35:33.504Z,35.89
2018-08-19T09:38:20.875Z,37.80
2018-08-19T09:40:50.172Z,39.78
2018-08-19T09:43:18.903Z,41.08
2018-08-19T09:45:47.842Z,40.93
2018-08-19T09:48:16.798Z,42.02
2018-08-19T09:50:45.634Z,41.56
2018-08-19T09:53:14.373Z,41.52
2018-08-19T09:55:47.402Z,40.34
2018-08-19T09:58:18.144Z,39.78
2018-08-19T10:00:51.990Z,39.96
2018-08-19T10:03:20.514Z,39.02
2018-08-19T10:05:49.113Z,39.37
2018-08-19T10:08:18.533Z,40.21
2018-08-19T10:10:47.538Z,42.10
2018-08-19T10:13:16.326Z,43.89
2018-08-19T10:15:44.896Z,43.92
2018-08-19T10:18:13.424Z,41.70
2018-08-19T10:20:41.966Z,40.53
2018-08-19T10:23:10.467Z,40.73
2018-08-19T10:25:39.053Z,42.61
2018-08-19T10:28:07.863Z,42.83
2018-08-19T10:30:39.759Z,41.38
2018-08-19T10:33:10.774Z,41.65
2018-08-19T10:35:39.405Z,43.92
2018-08-19T10:38:07.935Z,44.75
2018-08-19T10:40:36.609Z,45.51
2018-08-19T10:43:07.468Z,45.36
2018-08-19T10:45:38.254Z,45.14
2018-08-19T10:48:10.021Z,44.19
2018-08-19T10:50:38.569Z,44.11
2018-08-19T10:53:15.468Z,44.04
2018-08-19T10:55:44.934Z,44.96
2018-08-19T10:58:13.434Z,45.43
2018-08-19T11:00:42.053Z,46.25
2018-08-19T11:03:16.732Z,47.38
2018-08-19T11:05:46.150Z,46.51
2018-08-19T11:08:14.667Z,43.54
2018-08-19T11:10:43.207Z,42.29
2018-08-19T11:13:11.706Z,41.97
2018-08-19T11:15:45.315Z,43.11
2018-08-19T11:18:42.982Z,43.44
2018-08-19T11:21:25.727Z,45.22
2018-08-19T11:23:54.674Z,45.84
2018-08-19T11:26:23.279Z,44.72
2018-08-19T11:28:54.123Z,45.04
2018-08-19T11:31:28.027Z,45.74
2018-08-19T11:33:58.650Z,46.35
2018-08-19T11:36:44.732Z,45.27
2018-08-19T11:39:14.741Z,45.77
2018-08-19T11:41:43.269Z,45.46
2018-08-19T11:44:14.049Z,45.18
2018-08-19T11:46:42.601Z,44.23
2018-08-19T11:49:14.386Z,44.71
2018-08-19T11:51:47.002Z,45.16
2018-08-19T11:54:16.701Z,44.38
2018-08-19T11:56:59.195Z,43.28
2018-08-19T11:59:33.120Z,43.60
2018-08-19T12:02:01.866Z,42.46
2018-08-19T12:04:30.378Z,41.83
2018-08-19T12:06:58.882Z,42.15
2018-08-19T12:09:27.436Z,42.99
2018-08-19T12:11:55.957Z,43.84
2018-08-19T12:14:24.449Z,44.22
2018-08-19T12:16:55.306Z,44.06
2018-08-19T12:19:25.763Z,43.69
2018-08-19T12:22:00.299Z,44.01
2018-08-19T12:24:31.809Z,45.28
2018-08-19T12:27:02.353Z,45.19
2018-08-19T12:29:35.041Z,45.38
2018-08-19T12:32:19.562Z,44.93
2018-08-19T12:34:51.132Z,44.19
2018-08-19T12:37:20.779Z,44.59
2018-08-19T12:39:49.623Z,44.31
2018-08-19T12:42:18.219Z,43.95
2018-08-19T12:44:52.318Z,43.53
2018-08-19T12:47:23.294Z,42.92
2018-08-19T12:50:00.659Z,41.96
2018-08-19T12:52:32.239Z,42.20
2018-08-19T12:55:19.164Z,43.50
2018-08-19T12:57:52.286Z,44.31
2018-08-19T13:00:28.080Z,43.59
2018-08-19T13:02:56.687Z,43.53
2018-08-19T13:05:25.230Z,43.15
2018-08-19T13:07:53.834Z,43.05
2018-08-19T13:10:22.851Z,43.18
2018-08-19T13:12:56.717Z,43.06
2018-08-19T13:15:27.162Z,42.49
2018-08-19T13:17:55.866Z,42.88
2018-08-19T13:20:24.478Z,43.91
2018-08-19T13:23:00.306Z,44.21
2018-08-19T13:25:29.033Z,44.41
2018-08-19T13:27:57.757Z,43.38
2018-08-19T13:30:26.417Z,41.09
2018-08-19T13:32:54.910Z,41.30
2018-08-19T13:35:23.475Z,42.00
2018-08-19T13:37:54.306Z,41.99
2018-08-19T13:40:22.844Z,42.81
2018-08-19T13:42:51.391Z,42.57
2018-08-19T13:45:21.273Z,41.91
2018-08-19T13:47:51.388Z,42.78
2018-08-19T13:50:19.945Z,44.09
2018-08-19T13:52:48.429Z,44.13
2018-08-19T13:55:18.673Z,43.25
2018-08-19T13:57:47.161Z,42.48
2018-08-19T14:00:20.349Z,43.06
2018-08-19T14:02:49.426Z,42.35
2018-08-19T14:05:17.929Z,41.95
2018-08-19T14:07:46.418Z,42.06
2018-08-19T14:10:15.874Z,42.87
2018-08-19T14:12:44.504Z,42.77
2018-08-19T14:15:13.075Z,42.67
2018-08-19T14:17:41.695Z,42.67
2018-08-19T14:20:15.410Z,42.37
2018-08-19T14:22:43.924Z,41.73
2018-08-19T14:25:12.895Z,42.39
2018-08-19T14:27:41.713Z,41.12
2018-08-19T14:30:11.807Z,40.80
2018-08-19T14:32:41.297Z,41.48
2018-08-19T14:35:09.906Z,41.88
2018-08-19T14:37:38.431Z,42.55
2018-08-19T14:40:10.561Z,42.73
2018-08-19T14:42:39.101Z,43.48
2018-08-19T14:45:07.769Z,41.74
2018-08-19T14:47:36.319Z,41.15
2018-08-19T14:50:08.949Z,42.01
2018-08-19T14:52:37.437Z,41.05
2018-08-19T14:55:06.462Z,40.35
2018-08-19T14:57:34.982Z,39.53
2018-08-19T15:00:03.807Z,38.87
2018-08-19T15:02:35.510Z,39.71
2018-08-19T15:05:04.256Z,40.26
2018-08-19T15:07:32.742Z,40.31
2018-08-19T15:10:01.336Z,40.68
2018-08-19T15:12:29.802Z,40.39
2018-08-19T15:15:00.937Z,41.37
2018-08-19T15:17:29.440Z,41.12
2018-08-19T15:19:57.986Z,41.30
2018-08-19T15:22:26.432Z,41.20
2018-08-19T15:24:54.917Z,41.38
2018-08-19T15:27:23.374Z,40.34
2018-08-19T15:29:53.057Z,39.57
2018-08-19T15:32:22.948Z,38.58
2018-08-19T15:34:51.266Z,39.31
2018-08-19T15:37:19.758Z,39.54
2018-08-19T15:39:48.292Z,39.44
2018-08-19T15:42:17.026Z,39.40
2018-08-19T15:44:45.651Z,39.29
2018-08-19T15:47:14.287Z,38.86
2018-08-19T15:49:42.773Z,39.10
2018-08-19T15:52:11.278Z,38.82
2018-08-19T15:54:42.669Z,38.99
2018-08-19T15:57:11.176Z,38.57
2018-08-19T15:59:39.646Z,38.52
2018-08-19T16:02:08.182Z,38.81
2018-08-19T16:04:36.655Z,39.09
2018-08-19T16:07:05.264Z,39.03
2018-08-19T16:09:33.754Z,39.13
2018-08-19T16:12:02.291Z,38.70
2018-08-19T16:14:32.834Z,39.21
2018-08-19T16:17:02.565Z,38.92
2018-08-19T16:19:31.256Z,39.10
2018-08-19T16:22:00.349Z,39.23
2018-08-19T16:24:29.115Z,39.19
2018-08-19T16:26:57.716Z,39.01
2018-08-19T16:29:26.721Z,38.36
2018-08-19T16:31:55.267Z,38.49
2018-08-19T16:34:28.695Z,38.61
2018-08-19T16:36:57.304Z,38.32
2018-08-19T16:39:25.890Z,38.08
2018-08-19T16:41:54.387Z,37.80
2018-08-19T16:44:23.212Z,37.36
2018-08-19T16:46:51.695Z,36.94
2018-08-19T16:49:20.130Z,36.56
2018-08-19T16:51:48.655Z,36.72
2018-08-19T16:54:17.116Z,37.05
2018-08-19T16:56:45.639Z,37.02
2018-08-19T16:59:14.093Z,36.74
2018-08-19T17:01:42.566Z,36.99
2018-08-19T17:04:11.050Z,36.72
2018-08-19T17:06:39.564Z,36.31
2018-08-19T17:09:09.277Z,36.47
2018-08-19T17:11:37.784Z,36.49
2018-08-19T17:14:07.137Z,36.47
2018-08-19T17:16:35.680Z,36.68
2018-08-19T17:19:04.179Z,36.75
2018-08-19T17:21:32.676Z,36.84
2018-08-19T17:24:01.143Z,36.54
2018-08-19T17:26:29.649Z,36.62
2018-08-19T17:29:04.346Z,36.45
2018-08-19T17:31:33.102Z,36.39
2018-08-19T17:34:01.622Z,36.11
2018-08-19T17:36:34.819Z,35.93
2018-08-19T17:39:03.396Z,35.45
2018-08-19T17:41:31.867Z,35.29
2018-08-19T17:44:02.475Z,34.98
2018-08-19T17:46:30.941Z,34.42
2018-08-19T17:48:59.560Z,34.27
2018-08-19T17:51:33.658Z,33.98
2018-08-19T17:54:02.463Z,33.53
2018-08-19T17:56:30.938Z,33.18
2018-08-19T17:58:59.483Z,32.69
2018-08-19T18:01:28.658Z,32.05
2018-08-19T18:03:57.737Z,31.57
2018-08-19T18:06:27.431Z,31.41
2018-08-19T18:08:56.383Z,31.11
2018-08-19T18:11:24.903Z,30.82
2018-08-19T18:13:53.479Z,30.54
2018-08-19T18:16:22.056Z,30.18
2018-08-19T18:18:50.667Z,30.04
2018-08-19T18:21:19.197Z,29.83
2018-08-19T18:23:49.106Z,29.73
2018-08-19T18:26:18.020Z,29.50
2018-08-19T18:28:48.414Z,29.33
2018-08-19T18:31:21.456Z,29.16
2018-08-19T18:34:00.044Z,28.99
2018-08-19T18:36:31.377Z,28.77
2018-08-19T18:39:00.378Z,28.61
2018-08-19T18:41:33.307Z,28.49
2018-08-19T18:44:03.026Z,28.30
2018-08-19T18:46:32.249Z,28.33
2018-08-19T18:49:12.375Z,28.06
2018-08-19T18:51:42.308Z,27.94
2018-08-19T18:54:19.014Z,27.87
2018-08-19T18:56:47.534Z,27.75
2018-08-19T18:59:17.702Z,27.70
2018-08-19T19:01:46.227Z,27.72
2018-08-19T19:04:15.206Z,27.68
2018-08-19T19:06:43.731Z,27.58
2018-08-19T19:09:12.530Z,27.41
2018-08-19T19:11:41.082Z,27.29
2018-08-19T19:14:16.816Z,27.22
2018-08-19T19:16:47.794Z,27.12
2018-08-19T19:19:16.481Z,27.04
2018-08-19T19:21:51.010Z,27.01
2018-08-19T19:24:24.886Z,26.84
2018-08-19T19:26:53.973Z,26.65
2018-08-19T19:29:26.556Z,26.54
2018-08-19T19:31:56.102Z,26.40
2018-08-19T19:34:30.951Z,26.39
2018-08-19T19:36:59.511Z,26.24
2018-08-19T19:39:28.006Z,26.20
2018-08-19T19:42:02.614Z,26.09
2018-08-19T19:44:34.710Z,25.94
2018-08-19T19:47:03.375Z,25.76
2018-08-19T19:49:32.046Z,25.76
2018-08-19T19:52:02.549Z,25.69
2018-08-19T19:54:32.230Z,25.56
2018-08-19T19:57:01.481Z,25.51
2018-08-19T19:59:31.533Z,25.60
2018-08-19T20:02:00.054Z,25.44
2018-08-19T20:04:28.700Z,25.35
2018-08-19T20:06:57.244Z,25.20
2018-08-19T20:09:25.793Z,25.20
2018-08-19T20:11:54.298Z,25.08
2018-08-19T20:14:22.817Z,25.12
2018-08-19T20:16:51.295Z,25.12
2018-08-19T20:19:19.820Z,25.13
2018-08-19T20:21:48.363Z,24.94
2018-08-19T20:24:17.191Z,24.93
2018-08-19T20:26:45.704Z,24.82
2018-08-19T20:29:14.168Z,24.68
2018-08-19T20:31:42.767Z,24.66
2018-08-19T20:34:11.316Z,24.80
2018-08-19T20:36:39.842Z,24.79
2018-08-19T20:39:08.447Z,24.73
2018-08-19T20:41:37.009Z,24.76
2018-08-19T20:44:07.924Z,24.61
2018-08-19T20:46:37.903Z,24.60
2018-08-19T20:49:06.458Z,24.50
2018-08-19T20:51:35.132Z,24.46
2018-08-19T20:54:03.686Z,24.22
2018-08-19T20:56:32.244Z,24.28
2018-08-19T20:59:01.042Z,24.29
2018-08-19T21:01:29.589Z,24.28
2018-08-19T21:03:58.207Z,24.23
2018-08-19T21:06:26.770Z,24.15
2018-08-19T21:08:55.360Z,23.93
2018-08-19T21:11:23.945Z,23.96
2018-08-19T21:13:52.466Z,23.95
2018-08-19T21:16:21.779Z,23.98
2018-08-19T21:18:50.335Z,23.83
2018-08-19T21:21:18.943Z,23.96
2018-08-19T21:23:47.454Z,23.87
2018-08-19T21:26:16.074Z,23.72
2018-08-19T21:28:48.836Z,23.77
2018-08-19T21:31:17.717Z,23.67
2018-08-19T21:33:46.290Z,23.62
2018-08-19T21:36:14.883Z,23.59
2018-08-19T21:38:43.463Z,23.55
2018-08-19T21:41:12.093Z,23.59
2018-08-19T21:43:40.671Z,23.62
2018-08-19T21:46:09.259Z,23.59
2018-08-19T21:48:39.282Z,23.64
2018-08-19T21:51:07.899Z,23.69
2018-08-19T21:53:37.052Z,23.62
2018-08-19T21:56:05.654Z,23.62
2018-08-19T21:58:34.349Z,23.58
2018-08-19T22:01:04.253Z,23.53
2018-08-19T22:03:38.221Z,23.58
2018-08-19T22:06:08.066Z,23.50
2018-08-19T22:08:36.551Z,23.31
2018-08-19T22:11:05.307Z,23.24
2018-08-19T22:13:33.890Z,22.84
2018-08-19T22:16:02.518Z,22.67
2018-08-19T22:18:31.859Z,22.65
2018-08-19T22:21:26.588Z,22.64
2018-08-19T22:23:56.446Z,22.72
2018-08-19T22:26:25.032Z,22.72
2018-08-19T22:29:09.163Z,22.73
2018-08-19T22:31:37.758Z,22.80
2018-08-19T22:34:06.293Z,22.72
2018-08-19T22:36:34.834Z,22.83
2018-08-19T22:39:03.595Z,22.84
2018-08-19T22:41:33.445Z,22.88
2018-08-19T22:44:01.980Z,22.99
2018-08-19T22:46:30.599Z,22.99
2018-08-19T22:48:59.458Z,22.98
2018-08-19T22:51:31.094Z,22.88
2018-08-19T22:53:59.670Z,22.82
2018-08-19T22:56:28.249Z,22.73
2018-08-19T22:58:56.778Z,22.52
2018-08-19T23:01:29.535Z,22.65
2018-08-19T23:04:02.415Z,22.59
2018-08-19T23:06:31.951Z,22.54
2018-08-19T23:09:00.721Z,22.25
2018-08-19T23:11:35.549Z,21.99
2018-08-19T23:14:15.929Z,21.97
2018-08-19T23:16:44.518Z,22.11
2018-08-19T23:19:13.537Z,22.06
2018-08-19T23:21:42.113Z,21.88
2018-08-19T23:24:10.677Z,21.99
2018-08-19T23:26:39.235Z,21.90
2018-08-19T23:29:07.785Z,21.71
2018-08-19T23:31:36.355Z,21.61
2018-08-19T23:34:04.969Z,21.32
2018-08-19T23:36:33.514Z,21.53
2018-08-19T23:39:02.056Z,21.34
2018-08-19T23:41:30.553Z,21.36
2018-08-19T23:43:59.112Z,21.51
2018-08-19T23:46:27.661Z,21.57
2018-08-19T23:48:56.246Z,21.71
2018-08-19T23:51:29.294Z,21.74
2018-08-19T23:53:58.257Z,21.66
2018-08-19T23:56:26.843Z,21.77
2018-08-19T23:58:55.562Z,21.76
